Terminal Aerodrome Forecast
Issued by NWS

Home | Current Version | Previous Version | Text Only | Print | Product List | Glossary On
Versions: 1 2 3 4 5 6 7 8 9 10 11 12 13 14 15
000
FTUS42 KTBW 222340
TAFRSW
TAF
KRSW 222340Z 2300/2324 28008KT P6SM SKC
     FM230300 34005KT P6SM SKC
     FM230600 03004KT 5SM BR SCT015
     FM231400 06009KT P6SM SCT030 SCT100
     FM232100 08010G17KT P6SM VCSH OVC050=

USA.gov is the U.S. government's official web portal to all federal, state and local government web resources and services.